createdAt,value
2018-08-24T00:01:04.308Z,1.20
2018-08-24T00:04:09.720Z,0.70
2018-08-24T00:07:13.911Z,1.10
2018-08-24T00:10:18.098Z,0.90
2018-08-24T00:13:22.391Z,0.97
2018-08-24T00:16:31.967Z,0.80
2018-08-24T00:19:37.024Z,1.17
2018-08-24T00:22:41.284Z,1.10
2018-08-24T00:25:45.621Z,1.10
2018-08-24T00:28:49.945Z,0.70
2018-08-24T00:31:54.282Z,0.90
2018-08-24T00:34:58.567Z,1.37
2018-08-24T00:38:02.822Z,0.90
2018-08-24T00:41:07.112Z,0.80
2018-08-24T00:44:11.632Z,0.87
2018-08-24T00:47:16.055Z,0.73
2018-08-24T00:50:20.377Z,0.50
2018-08-24T00:53:24.701Z,0.40
2018-08-24T00:56:29.022Z,0.80
2018-08-24T00:59:33.338Z,0.63
2018-08-24T01:02:37.626Z,0.57
2018-08-24T01:05:41.781Z,0.40
2018-08-24T01:08:45.957Z,0.50
2018-08-24T01:11:55.573Z,0.50
2018-08-24T01:14:59.953Z,0.60
2018-08-24T01:19:09.425Z,0.60
2018-08-24T01:22:13.873Z,0.50
2018-08-24T01:25:18.076Z,0.60
2018-08-24T01:28:22.811Z,0.70
2018-08-24T01:31:27.079Z,0.83
2018-08-24T01:34:31.663Z,0.90
2018-08-24T01:37:36.033Z,0.87
2018-08-24T01:40:40.379Z,0.77
2018-08-24T01:43:44.475Z,0.70
2018-08-24T01:46:48.772Z,0.70
2018-08-24T01:49:53.109Z,0.77
2018-08-24T01:52:57.398Z,0.60
2018-08-24T01:56:01.685Z,0.80
2018-08-24T01:59:05.865Z,0.70
2018-08-24T02:02:10.148Z,0.80
2018-08-24T02:05:14.518Z,0.90
2018-08-24T02:08:18.871Z,0.80
2018-08-24T02:11:28.380Z,0.70
2018-08-24T02:14:37.853Z,0.90
2018-08-24T02:17:47.501Z,1.13
2018-08-24T02:20:57.143Z,1.10
2018-08-24T02:24:01.456Z,1.10
2018-08-24T02:27:05.746Z,1.07
2018-08-24T02:30:10.050Z,1.00
2018-08-24T02:33:14.371Z,1.10
2018-08-24T02:36:18.653Z,0.90
2018-08-24T02:39:22.891Z,1.33
2018-08-24T02:42:27.215Z,0.90
2018-08-24T02:45:31.495Z,1.10
2018-08-24T02:48:35.688Z,1.40
2018-08-24T02:51:40.081Z,1.23
2018-08-24T02:54:44.376Z,1.20
2018-08-24T02:57:48.812Z,1.20
2018-08-24T03:00:52.849Z,1.23
2018-08-24T03:03:56.992Z,1.47
2018-08-24T03:07:01.081Z,1.47
2018-08-24T03:10:05.497Z,1.50
2018-08-24T03:13:09.791Z,1.37
2018-08-24T03:16:13.947Z,1.70
2018-08-24T03:19:18.009Z,2.00
2018-08-24T03:22:22.239Z,2.00
2018-08-24T03:25:26.560Z,2.00
2018-08-24T03:28:30.829Z,2.10
2018-08-24T03:31:35.165Z,2.30
2018-08-24T03:34:39.531Z,2.50
2018-08-24T03:37:43.658Z,2.93
2018-08-24T03:40:47.939Z,3.20
2018-08-24T03:43:52.291Z,3.83
2018-08-24T03:46:56.588Z,3.43
2018-08-24T03:50:01.064Z,3.43
2018-08-24T03:53:05.561Z,3.13
2018-08-24T03:56:09.690Z,3.67
2018-08-24T03:59:14.205Z,3.30
2018-08-24T04:02:18.494Z,3.63
2018-08-24T04:05:22.796Z,4.00
2018-08-24T04:08:26.821Z,3.97
2018-08-24T04:11:31.133Z,4.63
2018-08-24T04:14:35.403Z,5.00
2018-08-24T04:17:41.357Z,4.33
2018-08-24T04:20:45.539Z,5.17
2018-08-24T04:23:50.748Z,5.03
2018-08-24T04:26:55.869Z,4.80
2018-08-24T04:30:00.099Z,4.17
2018-08-24T04:33:04.172Z,3.60
2018-08-24T04:36:08.461Z,3.80
2018-08-24T04:39:13.260Z,3.50
2018-08-24T04:42:17.613Z,2.83
2018-08-24T04:45:21.763Z,2.90
2018-08-24T04:48:26.049Z,2.70
2018-08-24T04:51:30.839Z,2.50
2018-08-24T04:54:35.186Z,3.00
2018-08-24T04:57:39.349Z,3.30
2018-08-24T05:00:44.536Z,2.67
2018-08-24T05:03:48.683Z,2.37
2018-08-24T05:06:52.974Z,2.17
2018-08-24T05:09:57.220Z,2.00
2018-08-24T05:13:01.466Z,2.57
2018-08-24T05:16:05.936Z,2.30
2018-08-24T05:19:10.006Z,2.87
2018-08-24T05:22:14.093Z,2.57
2018-08-24T05:25:18.343Z,3.00
2018-08-24T05:28:22.711Z,2.33
2018-08-24T05:31:27.033Z,2.43
2018-08-24T05:34:31.163Z,2.60
2018-08-24T05:37:35.274Z,2.53
2018-08-24T05:40:39.657Z,2.80
2018-08-24T05:43:43.954Z,2.57
2018-08-24T05:46:48.308Z,2.70
2018-08-24T05:49:52.632Z,2.80
2018-08-24T05:52:56.766Z,3.00
2018-08-24T05:56:01.083Z,3.20
2018-08-24T05:59:05.329Z,2.43
2018-08-24T06:02:09.749Z,2.77
2018-08-24T06:05:14.153Z,3.60
2018-08-24T06:08:18.278Z,3.27
2018-08-24T06:11:22.311Z,3.23
2018-08-24T06:14:26.616Z,3.03
2018-08-24T06:17:36.143Z,3.93
2018-08-24T06:20:40.552Z,3.70
2018-08-24T06:23:44.827Z,4.33
2018-08-24T06:26:49.316Z,3.93
2018-08-24T06:29:53.596Z,3.97
2018-08-24T06:32:57.693Z,4.60
2018-08-24T06:36:02.082Z,4.50
2018-08-24T06:39:10.256Z,5.30
2018-08-24T06:42:14.650Z,4.90
2018-08-24T06:45:18.753Z,4.87
2018-08-24T06:48:23.008Z,4.80
2018-08-24T06:51:27.373Z,5.20
2018-08-24T06:54:31.718Z,4.87
2018-08-24T06:57:36.061Z,5.23
2018-08-24T07:00:40.371Z,4.70
2018-08-24T07:03:44.678Z,5.53
2018-08-24T07:06:48.820Z,5.00
2018-08-24T07:09:53.133Z,4.60
2018-08-24T07:12:57.448Z,4.50
2018-08-24T07:16:01.748Z,4.87
2018-08-24T07:19:06.081Z,5.00
2018-08-24T07:22:10.212Z,5.33
2018-08-24T07:25:14.501Z,5.37
2018-08-24T07:28:18.755Z,5.33
2018-08-24T07:31:22.846Z,5.53
2018-08-24T07:34:27.029Z,6.13
2018-08-24T07:37:31.348Z,5.70
2018-08-24T07:40:35.623Z,5.53
2018-08-24T07:43:39.908Z,5.00
2018-08-24T07:46:44.158Z,5.00
2018-08-24T07:49:48.573Z,4.77
2018-08-24T07:52:52.877Z,4.90
2018-08-24T07:55:57.117Z,4.30
2018-08-24T07:59:02.419Z,5.23
2018-08-24T08:02:06.507Z,4.63
2018-08-24T08:05:10.883Z,4.50
2018-08-24T08:08:15.213Z,3.73
2018-08-24T08:11:19.475Z,3.47
2018-08-24T08:14:24.530Z,3.13
2018-08-24T08:17:28.886Z,2.97
2018-08-24T08:20:33.143Z,2.93
2018-08-24T08:23:37.383Z,2.63
2018-08-24T08:26:41.849Z,2.40
2018-08-24T08:29:51.193Z,2.00
2018-08-24T08:32:55.472Z,2.33
2018-08-24T08:35:59.825Z,2.40
2018-08-24T08:39:04.505Z,2.57
2018-08-24T08:42:08.834Z,2.53
2018-08-24T08:45:13.167Z,2.80
2018-08-24T08:48:17.469Z,2.70
2018-08-24T08:51:21.790Z,3.20
2018-08-24T08:54:26.141Z,2.80
2018-08-24T08:57:30.442Z,2.37
2018-08-24T09:00:34.714Z,2.40
2018-08-24T09:03:39.098Z,2.43
2018-08-24T09:06:43.417Z,2.33
2018-08-24T09:09:47.701Z,2.60
2018-08-24T09:12:52.024Z,2.03
2018-08-24T09:15:56.319Z,2.53
2018-08-24T09:19:05.900Z,2.30
2018-08-24T09:22:15.528Z,3.17
2018-08-24T09:25:25.144Z,2.63
2018-08-24T09:28:37.587Z,1.57
2018-08-24T09:31:42.502Z,1.93
2018-08-24T09:34:46.777Z,1.80
2018-08-24T09:37:51.181Z,2.13
2018-08-24T09:40:58.397Z,1.70
2018-08-24T09:44:02.780Z,2.03
2018-08-24T09:47:12.301Z,2.53
2018-08-24T09:50:21.702Z,2.00
2018-08-24T09:53:31.079Z,1.70
2018-08-24T09:56:36.498Z,1.87
2018-08-24T09:59:40.753Z,2.13
2018-08-24T10:02:45.095Z,2.30
2018-08-24T10:05:54.780Z,2.10
2018-08-24T10:08:59.137Z,2.30
2018-08-24T10:12:03.402Z,2.00
2018-08-24T10:15:10.161Z,2.00
2018-08-24T10:18:14.561Z,2.20
2018-08-24T10:21:18.865Z,2.13
2018-08-24T10:24:23.200Z,1.90
2018-08-24T10:27:27.469Z,2.00
2018-08-24T10:30:31.830Z,2.13
2018-08-24T10:33:36.115Z,2.20
2018-08-24T10:36:40.391Z,2.03
2018-08-24T10:39:44.643Z,2.40
2018-08-24T10:42:48.927Z,3.50
2018-08-24T10:45:53.245Z,2.17
2018-08-24T10:48:57.509Z,2.00
2018-08-24T10:52:02.012Z,2.00
2018-08-24T10:55:06.962Z,1.37
2018-08-24T10:58:11.364Z,2.10
2018-08-24T11:01:15.727Z,2.27
2018-08-24T11:04:20.004Z,2.10
2018-08-24T11:07:24.445Z,2.80
2018-08-24T11:10:28.858Z,2.07
2018-08-24T11:13:33.149Z,2.20
2018-08-24T11:16:37.445Z,2.93
2018-08-24T11:19:41.732Z,2.20
2018-08-24T11:22:46.097Z,2.60
2018-08-24T11:25:50.515Z,2.10
2018-08-24T11:28:54.852Z,2.50
2018-08-24T11:31:59.132Z,2.53
2018-08-24T11:35:03.417Z,2.10
2018-08-24T11:38:07.769Z,2.00
2018-08-24T11:41:12.093Z,1.80
2018-08-24T11:44:16.416Z,1.90
2018-08-24T11:47:20.992Z,2.20
2018-08-24T11:50:25.093Z,1.50
2018-08-24T11:53:29.425Z,1.70
2018-08-24T11:56:33.691Z,1.60
2018-08-24T11:59:38.024Z,1.17
2018-08-24T12:02:42.346Z,1.40
2018-08-24T12:05:46.460Z,1.40
2018-08-24T12:08:50.758Z,1.30
2018-08-24T12:11:54.996Z,1.40
2018-08-24T12:14:59.298Z,1.30
2018-08-24T12:18:03.720Z,1.23
2018-08-24T12:21:08.016Z,1.70
2018-08-24T12:24:12.253Z,1.40
2018-08-24T12:27:16.566Z,1.60
2018-08-24T12:30:20.905Z,1.40
2018-08-24T12:33:25.230Z,1.40
2018-08-24T12:36:29.540Z,1.40
2018-08-24T12:39:33.897Z,1.40
2018-08-24T12:42:37.985Z,1.47
2018-08-24T12:45:42.400Z,1.47
2018-08-24T12:48:46.759Z,1.50
2018-08-24T12:51:50.850Z,1.30
2018-08-24T12:54:55.247Z,2.47
2018-08-24T12:57:59.586Z,1.83
2018-08-24T13:01:03.987Z,1.27
2018-08-24T13:04:08.282Z,2.20
2018-08-24T13:07:12.945Z,1.57
2018-08-24T13:10:17.214Z,1.50
2018-08-24T13:13:21.584Z,1.20
2018-08-24T13:16:25.870Z,1.43
2018-08-24T13:19:30.144Z,1.40
2018-08-24T13:22:34.513Z,1.50
2018-08-24T13:25:38.897Z,1.30
2018-08-24T13:28:43.192Z,1.20
2018-08-24T13:31:47.478Z,1.13
2018-08-24T13:34:51.898Z,1.33
2018-08-24T13:37:56.241Z,1.30
2018-08-24T13:41:00.723Z,1.60
2018-08-24T13:44:05.111Z,1.63
2018-08-24T13:47:09.453Z,1.70
2018-08-24T13:50:13.813Z,1.87
2018-08-24T13:53:18.482Z,1.90
2018-08-24T13:56:22.873Z,1.77
2018-08-24T13:59:27.181Z,2.50
2018-08-24T14:02:31.513Z,1.70
2018-08-24T14:05:36.866Z,2.00
2018-08-24T14:08:42.096Z,1.77
2018-08-24T14:11:47.324Z,1.60
2018-08-24T14:14:52.165Z,2.10
2018-08-24T14:17:57.127Z,1.80
2018-08-24T14:21:02.202Z,1.80
2018-08-24T14:24:08.067Z,1.93
2018-08-24T14:27:13.031Z,1.43
2018-08-24T14:30:18.045Z,1.73
2018-08-24T14:33:22.548Z,1.90
2018-08-24T14:36:27.508Z,1.70
2018-08-24T14:39:32.768Z,1.60
2018-08-24T14:42:38.079Z,1.50
2018-08-24T14:45:43.441Z,2.17
2018-08-24T14:48:48.333Z,1.87
2018-08-24T14:51:52.543Z,1.63
2018-08-24T14:54:56.911Z,1.70
2018-08-24T14:58:01.340Z,3.77
2018-08-24T15:01:05.557Z,1.60
2018-08-24T15:04:09.842Z,1.67
2018-08-24T15:07:14.224Z,1.30
2018-08-24T15:10:18.627Z,1.13
2018-08-24T15:13:22.767Z,1.33
2018-08-24T15:16:27.072Z,1.40
2018-08-24T15:19:31.381Z,1.53
2018-08-24T15:22:35.669Z,1.70
2018-08-24T15:25:40.124Z,1.93
2018-08-24T15:28:44.496Z,1.40
2018-08-24T15:31:48.832Z,1.97
2018-08-24T15:34:53.141Z,1.53
2018-08-24T15:37:57.436Z,1.50
2018-08-24T15:41:01.862Z,1.20
2018-08-24T15:44:06.455Z,1.37
2018-08-24T15:47:11.428Z,1.27
2018-08-24T15:50:15.750Z,0.83
2018-08-24T15:53:20.117Z,1.00
2018-08-24T15:56:24.601Z,1.07
2018-08-24T15:59:28.751Z,1.27
2018-08-24T16:02:33.070Z,1.03
2018-08-24T16:05:37.367Z,1.30
2018-08-24T16:08:41.801Z,1.10
2018-08-24T16:11:46.169Z,0.90
2018-08-24T16:14:50.534Z,1.30
2018-08-24T16:18:00.212Z,1.10
2018-08-24T16:21:04.504Z,1.10
2018-08-24T16:24:08.854Z,1.40
2018-08-24T16:27:17.328Z,1.40
2018-08-24T16:30:21.736Z,1.20
2018-08-24T16:33:25.794Z,1.30
2018-08-24T16:36:30.224Z,1.20
2018-08-24T16:39:34.358Z,1.07
2018-08-24T16:42:38.730Z,1.43
2018-08-24T16:45:43.189Z,1.30
2018-08-24T16:48:47.633Z,1.43
2018-08-24T16:51:51.931Z,1.37
2018-08-24T16:54:56.301Z,0.93
2018-08-24T16:58:00.707Z,1.30
2018-08-24T17:01:05.313Z,1.00
2018-08-24T17:04:09.691Z,1.43
2018-08-24T17:07:13.835Z,1.13
2018-08-24T17:10:18.117Z,1.20
2018-08-24T17:13:22.789Z,1.30
2018-08-24T17:16:27.115Z,1.00
2018-08-24T17:19:31.483Z,1.30
2018-08-24T17:22:36.019Z,1.00
2018-08-24T17:25:40.448Z,1.17
2018-08-24T17:28:44.882Z,1.47
2018-08-24T17:31:48.897Z,1.50
2018-08-24T17:34:53.300Z,1.10
2018-08-24T17:37:57.725Z,1.00
2018-08-24T17:41:02.078Z,1.67
2018-08-24T17:44:06.609Z,1.33
2018-08-24T17:47:10.967Z,1.70
2018-08-24T17:50:15.399Z,1.17
2018-08-24T17:53:20.867Z,0.97
2018-08-24T17:56:25.299Z,1.50
2018-08-24T17:59:29.709Z,1.30
2018-08-24T18:02:34.155Z,1.20
2018-08-24T18:05:38.633Z,1.00
2018-08-24T18:08:43.260Z,1.20
2018-08-24T18:11:47.590Z,1.30
2018-08-24T18:14:52.047Z,1.00
2018-08-24T18:17:56.552Z,1.40
2018-08-24T18:21:00.961Z,1.50
2018-08-24T18:24:05.380Z,1.40
2018-08-24T18:27:09.684Z,1.10
2018-08-24T18:30:14.155Z,1.00
2018-08-24T18:33:18.529Z,1.80
2018-08-24T18:36:22.847Z,1.40
2018-08-24T18:39:27.324Z,1.27
2018-08-24T18:42:31.429Z,1.47
2018-08-24T18:45:35.504Z,1.90
2018-08-24T18:48:39.849Z,1.40
2018-08-24T18:51:44.265Z,2.57
2018-08-24T18:54:48.697Z,1.70
2018-08-24T18:57:53.250Z,1.57
2018-08-24T19:00:57.372Z,1.40
2018-08-24T19:04:01.761Z,1.70
2018-08-24T19:07:05.911Z,1.53
2018-08-24T19:10:09.992Z,1.40
2018-08-24T19:13:16.386Z,1.30
2018-08-24T19:16:21.696Z,1.23
2018-08-24T19:20:29.156Z,1.40
2018-08-24T19:23:33.493Z,1.40
2018-08-24T19:26:38.507Z,1.10
2018-08-24T19:29:48.036Z,1.80
2018-08-24T19:32:52.393Z,1.70
2018-08-24T19:35:57.009Z,1.67
2018-08-24T19:39:01.348Z,1.50
2018-08-24T19:42:10.820Z,1.50
2018-08-24T19:45:15.132Z,1.47
2018-08-24T19:48:25.643Z,1.87
2018-08-24T19:51:31.125Z,1.70
2018-08-24T19:54:35.522Z,1.60
2018-08-24T19:57:45.252Z,1.40
2018-08-24T20:00:49.669Z,1.13
2018-08-24T20:03:54.017Z,1.30
2018-08-24T20:07:03.582Z,2.00
2018-08-24T20:10:10.136Z,1.30
2018-08-24T20:13:14.561Z,1.60
2018-08-24T20:16:24.107Z,1.53
2018-08-24T20:19:29.378Z,1.30
2018-08-24T20:22:33.511Z,2.43
2018-08-24T20:25:37.897Z,1.73
2018-08-24T20:28:42.283Z,1.70
2018-08-24T20:31:46.741Z,1.80
2018-08-24T20:34:51.065Z,1.70
2018-08-24T20:37:55.488Z,1.53
2018-08-24T20:40:59.611Z,2.00
2018-08-24T20:44:04.137Z,1.80
2018-08-24T20:47:09.144Z,1.40
2018-08-24T20:50:13.556Z,1.77
2018-08-24T20:53:17.992Z,1.50
2018-08-24T20:56:22.485Z,1.77
2018-08-24T20:59:27.033Z,1.53
2018-08-24T21:02:31.344Z,1.87
2018-08-24T21:05:35.645Z,1.70
2018-08-24T21:08:39.995Z,1.60
2018-08-24T21:11:44.277Z,1.40
2018-08-24T21:14:48.571Z,1.43
2018-08-24T21:17:52.926Z,1.50
2018-08-24T21:20:57.223Z,1.77
2018-08-24T21:24:01.396Z,1.70
2018-08-24T21:27:06.026Z,1.70
2018-08-24T21:30:10.501Z,1.70
2018-08-24T21:33:14.833Z,2.43
2018-08-24T21:36:19.225Z,1.30
2018-08-24T21:39:23.580Z,1.50
2018-08-24T21:42:27.905Z,1.97
2018-08-24T21:45:32.223Z,1.43
2018-08-24T21:48:36.654Z,1.40
2018-08-24T21:51:41.016Z,1.70
2018-08-24T21:54:45.385Z,1.70
2018-08-24T21:57:49.865Z,2.00
2018-08-24T22:00:54.267Z,1.83
2018-08-24T22:03:58.581Z,1.50
2018-08-24T22:07:02.948Z,1.40
2018-08-24T22:10:07.304Z,1.40
2018-08-24T22:13:11.726Z,1.33
2018-08-24T22:16:15.993Z,1.70
2018-08-24T22:19:20.331Z,1.50
2018-08-24T22:22:24.647Z,1.73
2018-08-24T22:25:28.753Z,1.50
2018-08-24T22:28:33.082Z,1.80
2018-08-24T22:31:37.529Z,1.60
2018-08-24T22:34:41.951Z,1.57
2018-08-24T22:37:46.251Z,1.83
2018-08-24T22:40:50.405Z,1.90
2018-08-24T22:43:54.806Z,1.80
2018-08-24T22:46:58.940Z,1.63
2018-08-24T22:50:03.256Z,1.30
2018-08-24T22:53:07.674Z,1.53
2018-08-24T22:56:12.052Z,2.17
2018-08-24T22:59:16.399Z,2.40
2018-08-24T23:02:20.738Z,1.33
2018-08-24T23:05:24.990Z,1.33
2018-08-24T23:08:29.324Z,1.70
2018-08-24T23:11:33.691Z,1.50
2018-08-24T23:14:37.775Z,1.57
2018-08-24T23:17:42.087Z,1.77
2018-08-24T23:20:46.378Z,1.80
2018-08-24T23:23:50.723Z,1.90
2018-08-24T23:26:55.007Z,1.83
2018-08-24T23:29:59.252Z,1.60
2018-08-24T23:33:03.401Z,1.60
2018-08-24T23:36:07.521Z,1.67
2018-08-24T23:39:12.572Z,1.67
2018-08-24T23:42:16.977Z,1.43
2018-08-24T23:45:21.098Z,1.43
2018-08-24T23:48:25.443Z,1.47
2018-08-24T23:51:29.867Z,1.60
2018-08-24T23:54:34.252Z,1.60
2018-08-24T23:57:38.574Z,1.90
